LVMGN SAZM-SABE
Flight info
| Callsign | LVMGN |
|---|---|
| Flight time | 0h 53m |
| Altitude | 29000 |
| Route | PULPA1C PULPA DCT TENIL TENIL8R |
| Aircraft | SF50/L-SDGRWY/L |
Departure
| Time | 2026-04-25 11:49 |
|---|---|
| Airport | Ástor Piazzola International Airport (SAZM) |
Arrival
| Time | 2026-04-25 12:42 |
|---|---|
| Airport | Aeroparque Jorge Newbery (SABE) |
| Time | Latitude | Longitude | Altitude | Speed | Heading |
|---|---|---|---|---|---|
| 2026-04-25 11:42 | -37.93476 | -57.58059 | 73 ft | 0 kts | 173° |
| 2026-04-25 11:46 | -37.93482 | -57.58049 | 73 ft | 4 kts | 32° |
| 2026-04-25 11:46 | -37.93484 | -57.58076 | 73 ft | 8 kts | 116° |
| 2026-04-25 11:46 | -37.93468 | -57.58025 | 73 ft | 5 kts | 18° |
| 2026-04-25 11:46 | -37.93450 | -57.58030 | 73 ft | 5 kts | 304° |
| 2026-04-25 11:47 | -37.93393 | -57.58040 | 73 ft | 12 kts | 14° |
| 2026-04-25 11:47 | -37.93308 | -57.58026 | 73 ft | 11 kts | 356° |
| 2026-04-25 11:47 | -37.93239 | -57.58038 | 73 ft | 11 kts | 20° |
| 2026-04-25 11:47 | -37.93195 | -57.58008 | 73 ft | 0 kts | 31° |
| 2026-04-25 11:48 | -37.93184 | -57.57999 | 73 ft | 8 kts | 32° |
| 2026-04-25 11:48 | -37.93131 | -57.57903 | 73 ft | 19 kts | 114° |
| 2026-04-25 11:48 | -37.93296 | -57.57565 | 73 ft | 80 kts | 123° |
| 2026-04-25 11:49 | -37.93668 | -57.56826 | 306 ft | 112 kts | 123° |
| 2026-04-25 11:49 | -37.94087 | -57.55919 | 670 ft | 128 kts | 120° |
| 2026-04-25 11:49 | -37.94476 | -57.54872 | 981 ft | 134 kts | 112° |
| 2026-04-25 11:49 | -37.94380 | -57.53677 | 1242 ft | 148 kts | 67° |
| 2026-04-25 11:50 | -37.93560 | -57.52844 | 1504 ft | 161 kts | 22° |
| 2026-04-25 11:50 | -37.92428 | -57.52947 | 1764 ft | 170 kts | 337° |
| 2026-04-25 11:50 | -37.91620 | -57.53992 | 2020 ft | 170 kts | 292° |
| 2026-04-25 11:50 | -37.91531 | -57.55444 | 2220 ft | 174 kts | 248° |
| 2026-04-25 11:51 | -37.92296 | -57.56596 | 2510 ft | 182 kts | 204° |
| 2026-04-25 11:51 | -37.93563 | -57.56695 | 2801 ft | 192 kts | 159° |
| 2026-04-25 11:51 | -37.94527 | -57.55516 | 3082 ft | 207 kts | 116° |
| 2026-04-25 11:51 | -37.94553 | -57.53656 | 3361 ft | 225 kts | 73° |
| 2026-04-25 11:52 | -37.93519 | -57.52117 | 3636 ft | 242 kts | 32° |
| 2026-04-25 11:52 | -37.91874 | -57.51716 | 3907 ft | 252 kts | 353° |
| 2026-04-25 11:52 | -37.90197 | -57.52374 | 4191 ft | 256 kts | 339° |
| 2026-04-25 11:52 | -37.88489 | -57.53099 | 4463 ft | 261 kts | 347° |
| 2026-04-25 11:53 | -37.86684 | -57.53358 | 4735 ft | 263 kts | 359° |
| 2026-04-25 11:53 | -37.84863 | -57.53281 | 5007 ft | 265 kts | 5° |
| 2026-04-25 11:53 | -37.83024 | -57.53045 | 5281 ft | 266 kts | 7° |
| 2026-04-25 11:53 | -37.81200 | -57.52742 | 5552 ft | 267 kts | 8° |
| 2026-04-25 11:54 | -37.79370 | -57.52409 | 5825 ft | 268 kts | 9° |
| 2026-04-25 11:54 | -37.77525 | -57.52060 | 6099 ft | 268 kts | 9° |
| 2026-04-25 11:54 | -37.73835 | -57.51350 | 6647 ft | 268 kts | 9° |
| 2026-04-25 11:55 | -37.72007 | -57.50997 | 6919 ft | 268 kts | 9° |
| 2026-04-25 11:55 | -37.70159 | -57.50639 | 7194 ft | 268 kts | 9° |
| 2026-04-25 11:55 | -37.68337 | -57.50287 | 7466 ft | 268 kts | 8° |
| 2026-04-25 11:55 | -37.66488 | -57.49929 | 7742 ft | 267 kts | 8° |
| 2026-04-25 11:56 | -37.64668 | -57.49578 | 8014 ft | 267 kts | 8° |
| 2026-04-25 11:56 | -37.62839 | -57.49225 | 8289 ft | 267 kts | 8° |
| 2026-04-25 11:56 | -37.60996 | -57.48869 | 8565 ft | 266 kts | 8° |
| 2026-04-25 11:56 | -37.59197 | -57.48522 | 8836 ft | 266 kts | 8° |
| 2026-04-25 11:57 | -37.57370 | -57.48169 | 9112 ft | 265 kts | 8° |
| 2026-04-25 11:57 | -37.55548 | -57.47818 | 9388 ft | 265 kts | 8° |
| 2026-04-25 11:57 | -37.53741 | -57.47559 | 9650 ft | 263 kts | 355° |
| 2026-04-25 11:57 | -37.51951 | -57.47975 | 9937 ft | 260 kts | 344° |
| 2026-04-25 11:58 | -37.50206 | -57.48573 | 10214 ft | 259 kts | 342° |
| 2026-04-25 11:58 | -37.48483 | -57.49210 | 10490 ft | 259 kts | 341° |
| 2026-04-25 11:58 | -37.46768 | -57.49863 | 10766 ft | 262 kts | 341° |
| 2026-04-25 11:58 | -37.44989 | -57.50549 | 11050 ft | 271 kts | 341° |
| 2026-04-25 11:59 | -37.43178 | -57.51250 | 11330 ft | 277 kts | 341° |
| 2026-04-25 11:59 | -37.41351 | -57.51958 | 11606 ft | 281 kts | 341° |
| 2026-04-25 11:59 | -37.39447 | -57.52696 | 11889 ft | 285 kts | 341° |
| 2026-04-25 12:00 | -37.35653 | -57.54166 | 12443 ft | 289 kts | 341° |
| 2026-04-25 12:00 | -37.33736 | -57.54908 | 12720 ft | 290 kts | 341° |
| 2026-04-25 12:00 | -37.29877 | -57.56401 | 13273 ft | 292 kts | 341° |
| 2026-04-25 12:01 | -37.27922 | -57.57157 | 13553 ft | 292 kts | 340° |
| 2026-04-25 12:01 | -37.26003 | -57.57899 | 13827 ft | 293 kts | 340° |
| 2026-04-25 12:01 | -37.24057 | -57.58650 | 14105 ft | 293 kts | 340° |
| 2026-04-25 12:01 | -37.22116 | -57.59399 | 14382 ft | 293 kts | 340° |
| 2026-04-25 12:02 | -37.18224 | -57.60901 | 14938 ft | 292 kts | 340° |
| 2026-04-25 12:02 | -37.16305 | -57.61640 | 15213 ft | 292 kts | 340° |
| 2026-04-25 12:02 | -37.14370 | -57.62385 | 15490 ft | 292 kts | 340° |
| 2026-04-25 12:03 | -37.12422 | -57.63135 | 15769 ft | 291 kts | 340° |
| 2026-04-25 12:03 | -37.10508 | -57.63871 | 16044 ft | 291 kts | 340° |
| 2026-04-25 12:03 | -37.08572 | -57.64616 | 16323 ft | 290 kts | 340° |
| 2026-04-25 12:03 | -37.06645 | -57.65357 | 16600 ft | 290 kts | 340° |
| 2026-04-25 12:04 | -37.04718 | -57.66097 | 16878 ft | 290 kts | 340° |
| 2026-04-25 12:04 | -37.02817 | -57.66827 | 17153 ft | 290 kts | 340° |
| 2026-04-25 12:04 | -37.00883 | -57.67569 | 17432 ft | 289 kts | 340° |
| 2026-04-25 12:04 | -36.98912 | -57.68075 | 17706 ft | 292 kts | 350° |
| 2026-04-25 12:05 | -36.96921 | -57.68344 | 17981 ft | 292 kts | 352° |
| 2026-04-25 12:05 | -36.94883 | -57.68578 | 18262 ft | 292 kts | 352° |
| 2026-04-25 12:05 | -36.92895 | -57.68796 | 18536 ft | 291 kts | 352° |
| 2026-04-25 12:05 | -36.90857 | -57.69016 | 18819 ft | 291 kts | 352° |
| 2026-04-25 12:06 | -36.88852 | -57.69231 | 19094 ft | 290 kts | 352° |
| 2026-04-25 12:06 | -36.86850 | -57.69445 | 19367 ft | 290 kts | 352° |
| 2026-04-25 12:06 | -36.84851 | -57.69659 | 19641 ft | 289 kts | 352° |
| 2026-04-25 12:06 | -36.82845 | -57.69873 | 19916 ft | 289 kts | 352° |
| 2026-04-25 12:07 | -36.80852 | -57.70086 | 20190 ft | 288 kts | 352° |
| 2026-04-25 12:07 | -36.78867 | -57.70298 | 20464 ft | 288 kts | 352° |
| 2026-04-25 12:07 | -36.76900 | -57.70507 | 20736 ft | 287 kts | 351° |
| 2026-04-25 12:07 | -36.74918 | -57.70719 | 21010 ft | 286 kts | 351° |
| 2026-04-25 12:08 | -36.72926 | -57.70931 | 21288 ft | 286 kts | 351° |
| 2026-04-25 12:08 | -36.70962 | -57.71140 | 21562 ft | 285 kts | 351° |
| 2026-04-25 12:08 | -36.69011 | -57.71347 | 21835 ft | 284 kts | 351° |
| 2026-04-25 12:08 | -36.67032 | -57.71558 | 22113 ft | 283 kts | 351° |
| 2026-04-25 12:09 | -36.65076 | -57.71766 | 22388 ft | 282 kts | 351° |
| 2026-04-25 12:09 | -36.63135 | -57.71972 | 22663 ft | 281 kts | 351° |
| 2026-04-25 12:09 | -36.61192 | -57.72178 | 22939 ft | 281 kts | 351° |
| 2026-04-25 12:09 | -36.59255 | -57.72384 | 23215 ft | 280 kts | 350° |
| 2026-04-25 12:10 | -36.57331 | -57.72588 | 23490 ft | 279 kts | 350° |
| 2026-04-25 12:10 | -36.55409 | -57.72791 | 23766 ft | 278 kts | 350° |
| 2026-04-25 12:10 | -36.53512 | -57.72992 | 24039 ft | 276 kts | 350° |
| 2026-04-25 12:10 | -36.51591 | -57.73196 | 24317 ft | 275 kts | 350° |
| 2026-04-25 12:11 | -36.49712 | -57.73395 | 24591 ft | 274 kts | 350° |
| 2026-04-25 12:11 | -36.47816 | -57.73595 | 24868 ft | 273 kts | 349° |
| 2026-04-25 12:11 | -36.45939 | -57.73794 | 25144 ft | 272 kts | 349° |
| 2026-04-25 12:11 | -36.44061 | -57.73992 | 25421 ft | 271 kts | 349° |
| 2026-04-25 12:12 | -36.42188 | -57.74190 | 25698 ft | 269 kts | 349° |
| 2026-04-25 12:12 | -36.40946 | -57.74321 | 25883 ft | 268 kts | 349° |
| 2026-04-25 12:12 | -36.38493 | -57.74580 | 26251 ft | 266 kts | 349° |
| 2026-04-25 12:12 | -36.36666 | -57.74773 | 26526 ft | 265 kts | 349° |
| 2026-04-25 12:13 | -36.34837 | -57.74966 | 26803 ft | 263 kts | 349° |
| 2026-04-25 12:13 | -36.33026 | -57.75156 | 27079 ft | 262 kts | 348° |
| 2026-04-25 12:13 | -36.31209 | -57.75348 | 27358 ft | 260 kts | 348° |
| 2026-04-25 12:13 | -36.29434 | -57.75535 | 27632 ft | 259 kts | 348° |
| 2026-04-25 12:14 | -36.27658 | -57.75722 | 27908 ft | 257 kts | 348° |
| 2026-04-25 12:14 | -36.25870 | -57.75910 | 28187 ft | 255 kts | 348° |
| 2026-04-25 12:14 | -36.24123 | -57.76093 | 28463 ft | 253 kts | 348° |
| 2026-04-25 12:14 | -36.22389 | -57.76276 | 28738 ft | 251 kts | 348° |
| 2026-04-25 12:15 | -36.20663 | -57.76457 | 28967 ft | 251 kts | 348° |
| 2026-04-25 12:15 | -36.18882 | -57.76648 | 29001 ft | 260 kts | 348° |
| 2026-04-25 12:15 | -36.17063 | -57.76841 | 29004 ft | 268 kts | 348° |
| 2026-04-25 12:15 | -36.15173 | -57.77040 | 29004 ft | 276 kts | 348° |
| 2026-04-25 12:16 | -36.13250 | -57.77241 | 29004 ft | 282 kts | 348° |
| 2026-04-25 12:16 | -36.11285 | -57.77446 | 29003 ft | 288 kts | 348° |
| 2026-04-25 12:16 | -36.09278 | -57.77656 | 29003 ft | 293 kts | 349° |
| 2026-04-25 12:16 | -36.07247 | -57.77869 | 29003 ft | 297 kts | 349° |
| 2026-04-25 12:17 | -36.05168 | -57.78086 | 29003 ft | 300 kts | 349° |
| 2026-04-25 12:17 | -36.03089 | -57.78303 | 29003 ft | 303 kts | 349° |
| 2026-04-25 12:17 | -35.98859 | -57.78745 | 29002 ft | 308 kts | 349° |
| 2026-04-25 12:18 | -35.94580 | -57.79192 | 29002 ft | 311 kts | 349° |
| 2026-04-25 12:18 | -35.90260 | -57.79642 | 29002 ft | 314 kts | 349° |
| 2026-04-25 12:19 | -35.83737 | -57.80322 | 29001 ft | 316 kts | 349° |
| 2026-04-25 12:20 | -35.79392 | -57.80773 | 29001 ft | 317 kts | 349° |
| 2026-04-25 12:20 | -35.74982 | -57.81231 | 29001 ft | 317 kts | 349° |
| 2026-04-25 12:21 | -35.70598 | -57.81686 | 29001 ft | 318 kts | 349° |
| 2026-04-25 12:21 | -35.66215 | -57.82141 | 29001 ft | 318 kts | 349° |
| 2026-04-25 12:21 | -35.64004 | -57.82370 | 28819 ft | 319 kts | 349° |
| 2026-04-25 12:22 | -35.61824 | -57.82597 | 28601 ft | 321 kts | 349° |
| 2026-04-25 12:22 | -35.59576 | -57.82829 | 28376 ft | 323 kts | 349° |
| 2026-04-25 12:22 | -35.57365 | -57.83058 | 28157 ft | 324 kts | 349° |
| 2026-04-25 12:22 | -35.55104 | -57.83292 | 27933 ft | 326 kts | 349° |
| 2026-04-25 12:23 | -35.52860 | -57.83540 | 27711 ft | 327 kts | 349° |
| 2026-04-25 12:23 | -35.50603 | -57.83797 | 27489 ft | 328 kts | 349° |
| 2026-04-25 12:23 | -35.48328 | -57.84058 | 27265 ft | 328 kts | 349° |
| 2026-04-25 12:23 | -35.46072 | -57.84316 | 27044 ft | 329 kts | 349° |
| 2026-04-25 12:24 | -35.43778 | -57.84579 | 26819 ft | 330 kts | 349° |
| 2026-04-25 12:24 | -35.41514 | -57.84838 | 26598 ft | 330 kts | 349° |
| 2026-04-25 12:24 | -35.39245 | -57.85097 | 26377 ft | 330 kts | 349° |
| 2026-04-25 12:24 | -35.36979 | -57.85357 | 25738 ft | 331 kts | 350° |
| 2026-04-25 12:25 | -35.34709 | -57.85616 | 24989 ft | 328 kts | 350° |
| 2026-04-25 12:25 | -35.32464 | -57.85872 | 24288 ft | 324 kts | 350° |
| 2026-04-25 12:25 | -35.30241 | -57.86126 | 23663 ft | 319 kts | 350° |
| 2026-04-25 12:25 | -35.28073 | -57.86373 | 23043 ft | 315 kts | 350° |
| 2026-04-25 12:26 | -35.25916 | -57.86619 | 22419 ft | 311 kts | 351° |
| 2026-04-25 12:26 | -35.23788 | -57.86862 | 21798 ft | 309 kts | 351° |
| 2026-04-25 12:26 | -35.21658 | -57.87105 | 21172 ft | 306 kts | 351° |
| 2026-04-25 12:26 | -35.19569 | -57.87343 | 20553 ft | 304 kts | 351° |
| 2026-04-25 12:27 | -35.17478 | -57.87581 | 19930 ft | 302 kts | 351° |
| 2026-04-25 12:27 | -35.15383 | -57.87819 | 19302 ft | 301 kts | 352° |
| 2026-04-25 12:27 | -35.13320 | -57.88054 | 18681 ft | 299 kts | 352° |
| 2026-04-25 12:27 | -35.11292 | -57.88284 | 18066 ft | 296 kts | 352° |
| 2026-04-25 12:28 | -35.09249 | -57.88516 | 17437 ft | 292 kts | 352° |
| 2026-04-25 12:28 | -35.07247 | -57.88744 | 16814 ft | 289 kts | 352° |
| 2026-04-25 12:28 | -35.05291 | -57.88966 | 16199 ft | 286 kts | 352° |
| 2026-04-25 12:28 | -35.03316 | -57.89190 | 15572 ft | 284 kts | 353° |
| 2026-04-25 12:29 | -35.01379 | -57.89409 | 14951 ft | 280 kts | 353° |
| 2026-04-25 12:29 | -34.99457 | -57.89628 | 14326 ft | 276 kts | 352° |
| 2026-04-25 12:29 | -34.97676 | -57.90313 | 13701 ft | 269 kts | 331° |
| 2026-04-25 12:29 | -34.96092 | -57.91479 | 13079 ft | 265 kts | 324° |
| 2026-04-25 12:30 | -34.94613 | -57.92750 | 12460 ft | 262 kts | 322° |
| 2026-04-25 12:30 | -34.93167 | -57.94062 | 11838 ft | 260 kts | 322° |
| 2026-04-25 12:30 | -34.91734 | -57.95396 | 11210 ft | 258 kts | 321° |
| 2026-04-25 12:30 | -34.90326 | -57.96726 | 10584 ft | 256 kts | 321° |
| 2026-04-25 12:31 | -34.88927 | -57.98045 | 9958 ft | 254 kts | 321° |
| 2026-04-25 12:31 | -34.87558 | -57.99336 | 9340 ft | 252 kts | 322° |
| 2026-04-25 12:31 | -34.86187 | -58.00626 | 8715 ft | 249 kts | 322° |
| 2026-04-25 12:31 | -34.84829 | -58.01905 | 8088 ft | 246 kts | 322° |
| 2026-04-25 12:32 | -34.83490 | -58.03166 | 7463 ft | 244 kts | 322° |
| 2026-04-25 12:32 | -34.82165 | -58.04414 | 6840 ft | 242 kts | 322° |
| 2026-04-25 12:32 | -34.80837 | -58.05663 | 6211 ft | 240 kts | 322° |
| 2026-04-25 12:32 | -34.79543 | -58.06881 | 5595 ft | 239 kts | 322° |
| 2026-04-25 12:33 | -34.78233 | -58.08113 | 4968 ft | 238 kts | 322° |
| 2026-04-25 12:33 | -34.76931 | -58.09337 | 4342 ft | 237 kts | 322° |
| 2026-04-25 12:33 | -34.75645 | -58.10544 | 3831 ft | 231 kts | 322° |
| 2026-04-25 12:33 | -34.74413 | -58.11701 | 3541 ft | 218 kts | 322° |
| 2026-04-25 12:34 | -34.73241 | -58.12802 | 3286 ft | 208 kts | 322° |
| 2026-04-25 12:34 | -34.72118 | -58.13855 | 3038 ft | 201 kts | 322° |
| 2026-04-25 12:34 | -34.71054 | -58.14851 | 2961 ft | 187 kts | 321° |
| 2026-04-25 12:34 | -34.70461 | -58.15590 | 2957 ft | 177 kts | 309° |
| 2026-04-25 12:35 | -34.69505 | -58.17176 | 2766 ft | 172 kts | 304° |
| 2026-04-25 12:35 | -34.68837 | -58.18364 | 2615 ft | 169 kts | 304° |
| 2026-04-25 12:35 | -34.68186 | -58.19535 | 2484 ft | 166 kts | 303° |
| 2026-04-25 12:35 | -34.67556 | -58.20670 | 2462 ft | 157 kts | 303° |
| 2026-04-25 12:36 | -34.66960 | -58.21743 | 2460 ft | 148 kts | 303° |
| 2026-04-25 12:36 | -34.66399 | -58.22754 | 2461 ft | 141 kts | 303° |
| 2026-04-25 12:36 | -34.65863 | -58.23719 | 2462 ft | 134 kts | 303° |
| 2026-04-25 12:36 | -34.65332 | -58.24675 | 2357 ft | 137 kts | 303° |
| 2026-04-25 12:37 | -34.64799 | -58.25637 | 2236 ft | 140 kts | 303° |
| 2026-04-25 12:37 | -34.64247 | -58.26629 | 2112 ft | 143 kts | 303° |
| 2026-04-25 12:37 | -34.63681 | -58.27649 | 1987 ft | 145 kts | 303° |
| 2026-04-25 12:37 | -34.63119 | -58.28659 | 1865 ft | 147 kts | 303° |
| 2026-04-25 12:38 | -34.62544 | -58.29694 | 1741 ft | 149 kts | 303° |
| 2026-04-25 12:38 | -34.61961 | -58.30742 | 1676 ft | 146 kts | 302° |
| 2026-04-25 12:38 | -34.61407 | -58.31737 | 1670 ft | 139 kts | 302° |
| 2026-04-25 12:38 | -34.60877 | -58.32688 | 1649 ft | 131 kts | 302° |
| 2026-04-25 12:39 | -34.60390 | -58.33561 | 1539 ft | 119 kts | 302° |
| 2026-04-25 12:39 | -34.59945 | -58.34360 | 1425 ft | 107 kts | 302° |
| 2026-04-25 12:39 | -34.59533 | -58.35102 | 1238 ft | 107 kts | 302° |
| 2026-04-25 12:39 | -34.59116 | -58.35851 | 1039 ft | 108 kts | 302° |
| 2026-04-25 12:40 | -34.58698 | -58.36601 | 873 ft | 99 kts | 302° |
| 2026-04-25 12:40 | -34.58355 | -58.37214 | 771 ft | 81 kts | 302° |
| 2026-04-25 12:40 | -34.58035 | -58.37775 | 629 ft | 83 kts | 303° |
| 2026-04-25 12:40 | -34.57709 | -58.38343 | 495 ft | 81 kts | 302° |
| 2026-04-25 12:41 | -34.57415 | -58.38887 | 413 ft | 74 kts | 300° |
| 2026-04-25 12:41 | -34.57132 | -58.39422 | 296 ft | 76 kts | 302° |
| 2026-04-25 12:41 | -34.56840 | -58.39958 | 198 ft | 76 kts | 303° |
| 2026-04-25 12:41 | -34.56536 | -58.40496 | 80 ft | 75 kts | 306° |
| 2026-04-25 12:42 | -34.56253 | -58.40993 | 23 ft | 64 kts | 304° |
| 2026-04-25 12:42 | -34.56104 | -58.41255 | 22 ft | 51 kts | 305° |
| 2026-04-25 12:42 | -34.55881 | -58.41656 | 22 ft | 36 kts | 302° |
| 2026-04-25 12:42 | -34.55761 | -58.41870 | 22 ft | 23 kts | 306° |
| 2026-04-25 12:43 | -34.55646 | -58.41867 | 22 ft | 16 kts | 35° |
| 2026-04-25 12:43 | -34.55626 | -58.41773 | 22 ft | 11 kts | 121° |
| 2026-04-25 12:43 | -34.55690 | -58.41658 | 22 ft | 7 kts | 124° |
| 2026-04-25 12:44 | -34.55723 | -58.41594 | 22 ft | 10 kts | 100° |
| 2026-04-25 12:44 | -34.55683 | -58.41537 | 22 ft | 9 kts | 9° |
| 2026-04-25 12:44 | -34.55667 | -58.41534 | 22 ft | 0 kts | 8° |